createdAt,value
2022-10-05T00:00:01.283Z,382.00
2022-10-05T00:00:36.721Z,387.65
2022-10-05T00:01:25.567Z,373.25
2022-10-05T00:01:58.105Z,387.45
2022-10-05T00:02:32.241Z,389.48
2022-10-05T00:03:09.487Z,375.27
2022-10-05T00:03:41.961Z,391.33
2022-10-05T00:04:18.928Z,384.40
2022-10-05T00:04:56.556Z,377.55
2022-10-05T00:05:33.275Z,374.73
2022-10-05T00:06:06.225Z,381.42
2022-10-05T00:06:38.535Z,371.40
2022-10-05T00:07:17.816Z,384.75
2022-10-05T00:07:50.640Z,372.45
2022-10-05T00:08:23.775Z,381.33
2022-10-05T00:08:56.814Z,376.38
2022-10-05T00:09:31.807Z,389.73
2022-10-05T00:10:11.038Z,387.73
2022-10-05T00:10:44.421Z,382.05
2022-10-05T00:11:17.058Z,374.58
2022-10-05T00:11:50.290Z,383.52
2022-10-05T00:12:23.132Z,387.80
2022-10-05T00:12:55.430Z,384.50
2022-10-05T00:13:29.170Z,391.83
2022-10-05T00:14:01.631Z,382.50
2022-10-05T00:14:35.807Z,375.70
2022-10-05T00:15:11.942Z,372.75
2022-10-05T00:15:44.383Z,385.98
2022-10-05T00:16:21.263Z,374.45
2022-10-05T00:16:53.764Z,375.25
2022-10-05T00:17:27.431Z,377.13
2022-10-05T00:18:01.047Z,359.92
2022-10-05T00:18:33.492Z,360.30
2022-10-05T00:19:09.364Z,383.48
2022-10-05T00:19:42.655Z,363.08
2022-10-05T00:20:25.485Z,366.13
2022-10-05T00:20:58.040Z,398.17
2022-10-05T00:21:30.340Z,387.38
2022-10-05T00:22:17.132Z,390.77
2022-10-05T00:22:51.041Z,375.65
2022-10-05T00:23:25.805Z,376.65
2022-10-05T00:23:58.322Z,389.73
2022-10-05T00:24:30.692Z,378.77
2022-10-05T00:25:11.553Z,383.17
2022-10-05T00:25:43.814Z,392.42
2022-10-05T00:26:26.279Z,389.48
2022-10-05T00:27:01.019Z,400.65
2022-10-05T00:27:36.823Z,397.27
2022-10-05T00:28:30.415Z,401.35
2022-10-05T00:29:06.975Z,393.17
2022-10-05T00:29:39.338Z,389.80
2022-10-05T00:30:14.036Z,382.65
2022-10-05T00:30:48.063Z,393.92
2022-10-05T00:31:24.857Z,390.35
2022-10-05T00:31:57.364Z,380.02
2022-10-05T00:32:31.248Z,379.80
2022-10-05T00:33:03.553Z,391.15
2022-10-05T00:33:35.861Z,386.90
2022-10-05T00:34:08.113Z,384.15
2022-10-05T00:34:40.878Z,378.45
2022-10-05T00:35:14.475Z,387.58
2022-10-05T00:35:47.142Z,397.38
2022-10-05T00:36:20.106Z,379.58
2022-10-05T00:36:52.463Z,382.42
2022-10-05T00:37:24.890Z,381.98
2022-10-05T00:37:57.248Z,378.08
2022-10-05T00:38:29.563Z,380.10
2022-10-05T00:39:02.185Z,373.73
2022-10-05T00:39:36.704Z,378.05
2022-10-05T00:40:12.014Z,383.55
2022-10-05T00:40:50.205Z,381.52
2022-10-05T00:41:31.034Z,382.13
2022-10-05T00:42:21.994Z,386.83
2022-10-05T00:43:13.040Z,388.77
2022-10-05T00:44:00.701Z,395.42
2022-10-05T00:44:45.814Z,394.23
2022-10-05T00:45:21.170Z,396.67
2022-10-05T00:46:13.093Z,391.80
2022-10-05T00:46:50.707Z,400.88
2022-10-05T00:47:35.022Z,402.00
2022-10-05T00:48:16.470Z,397.20
2022-10-05T00:49:20.884Z,398.50
2022-10-05T00:50:22.346Z,399.65
2022-10-05T00:50:57.660Z,401.35
2022-10-05T00:51:36.245Z,398.92
2022-10-05T00:52:20.423Z,398.23
2022-10-05T00:52:58.514Z,402.77
2022-10-05T00:53:37.059Z,405.35
2022-10-05T00:54:32.490Z,399.85
2022-10-05T00:55:07.602Z,402.38
2022-10-05T00:55:40.159Z,398.98
2022-10-05T00:56:12.460Z,401.50
2022-10-05T00:57:03.221Z,406.88
2022-10-05T00:57:41.435Z,406.45
2022-10-05T00:58:28.880Z,410.95
2022-10-05T00:59:10.243Z,414.70
2022-10-05T00:59:49.269Z,407.27
2022-10-05T01:00:23.984Z,402.20
2022-10-05T01:00:56.531Z,405.77
2022-10-05T01:01:33.504Z,400.15
2022-10-05T01:02:08.862Z,402.25
2022-10-05T01:02:47.785Z,403.00
2022-10-05T01:03:33.658Z,404.92
2022-10-05T01:04:26.945Z,407.58
2022-10-05T01:04:59.533Z,414.45
2022-10-05T01:05:31.839Z,419.42
2022-10-05T01:06:07.615Z,396.58
2022-10-05T01:06:58.719Z,398.55
2022-10-05T01:07:49.540Z,416.00
2022-10-05T01:08:27.621Z,412.05
2022-10-05T01:08:59.953Z,413.00
2022-10-05T01:09:34.963Z,414.83
2022-10-05T01:10:16.200Z,405.73
2022-10-05T01:11:00.392Z,411.80
2022-10-05T01:11:38.187Z,416.88
2022-10-05T01:12:26.062Z,420.25
2022-10-05T01:13:10.337Z,410.95
2022-10-05T01:13:45.242Z,414.98
2022-10-05T01:14:36.897Z,408.85
2022-10-05T01:15:22.739Z,420.85
2022-10-05T01:16:14.166Z,422.38
2022-10-05T01:16:55.525Z,415.25
2022-10-05T01:17:38.978Z,409.23
2022-10-05T01:18:39.036Z,416.05
2022-10-05T01:19:17.387Z,425.25
2022-10-05T01:19:55.457Z,422.30
2022-10-05T01:20:34.009Z,418.55
2022-10-05T01:21:12.348Z,417.08
2022-10-05T01:22:07.681Z,418.75
2022-10-05T01:23:02.064Z,435.70
2022-10-05T01:23:53.201Z,429.00
2022-10-05T01:24:28.519Z,424.77
2022-10-05T01:25:12.243Z,416.08
2022-10-05T01:25:53.624Z,413.33
2022-10-05T01:26:38.613Z,423.83
2022-10-05T01:27:21.929Z,425.25
2022-10-05T01:28:01.182Z,424.13
2022-10-05T01:28:53.771Z,418.80
2022-10-05T01:29:40.410Z,418.95
2022-10-05T01:30:13.992Z,426.73
2022-10-05T01:31:01.533Z,419.52
2022-10-05T01:31:34.148Z,414.83
2022-10-05T01:32:41.323Z,416.05
2022-10-05T01:33:25.686Z,428.13
2022-10-05T01:34:13.832Z,426.30
2022-10-05T01:35:00.498Z,424.95
2022-10-05T01:35:51.498Z,425.05
2022-10-05T01:36:33.852Z,432.17
2022-10-05T01:37:09.985Z,428.13
2022-10-05T01:37:49.353Z,422.55
2022-10-05T01:38:21.615Z,429.52
2022-10-05T01:39:14.337Z,427.27
2022-10-05T01:40:09.736Z,427.33
2022-10-05T01:40:54.058Z,418.52
2022-10-05T01:41:29.195Z,421.40
2022-10-05T01:42:02.174Z,413.70
2022-10-05T01:42:52.763Z,426.30
2022-10-05T01:43:42.091Z,420.67
2022-10-05T01:44:17.839Z,430.23
2022-10-05T01:44:55.138Z,431.23
2022-10-05T01:45:42.929Z,425.38
2022-10-05T01:46:29.380Z,434.00
2022-10-05T01:47:09.851Z,431.35
2022-10-05T01:47:42.544Z,430.73
2022-10-05T01:48:24.295Z,423.33
2022-10-05T01:49:07.837Z,430.40
2022-10-05T01:49:59.537Z,442.77
2022-10-05T01:50:50.116Z,421.58
2022-10-05T01:51:30.973Z,420.15
2022-10-05T01:52:21.804Z,418.02
2022-10-05T01:52:57.097Z,431.58
2022-10-05T01:53:47.976Z,432.98
2022-10-05T01:54:38.979Z,430.75
2022-10-05T01:55:28.234Z,439.08
2022-10-05T01:56:04.027Z,430.83
2022-10-05T01:56:39.930Z,429.95
2022-10-05T01:57:31.466Z,443.98
2022-10-05T01:58:27.365Z,432.20
2022-10-05T01:59:05.818Z,426.60
2022-10-05T01:59:48.447Z,428.17
2022-10-05T02:00:21.184Z,429.00
2022-10-05T02:01:08.725Z,420.50
2022-10-05T02:01:43.803Z,419.27
2022-10-05T02:02:19.997Z,419.88
2022-10-05T02:02:56.018Z,408.13
2022-10-05T02:03:42.874Z,418.52
2022-10-05T02:04:59.948Z,419.35
2022-10-05T02:05:22.450Z,430.65
2022-10-05T02:05:58.297Z,409.13
2022-10-05T02:06:32.719Z,403.17
2022-10-05T02:07:09.045Z,393.98
2022-10-05T02:07:50.822Z,403.92
2022-10-05T02:08:29.626Z,396.60
2022-10-05T02:09:05.984Z,395.80
2022-10-05T02:09:43.668Z,393.73
2022-10-05T02:10:22.715Z,413.13
2022-10-05T02:11:06.796Z,412.83
2022-10-05T02:11:40.445Z,422.00
2022-10-05T02:12:14.937Z,411.85
2022-10-05T02:12:49.346Z,405.38
2022-10-05T02:13:25.532Z,405.64
2022-10-05T02:14:00.585Z,405.95
2022-10-05T02:14:39.562Z,411.85
2022-10-05T02:15:17.385Z,402.83
2022-10-05T02:15:54.597Z,410.92
2022-10-05T02:16:32.184Z,396.98
2022-10-05T02:17:12.522Z,404.20
2022-10-05T02:17:47.504Z,407.85
2022-10-05T02:18:21.394Z,405.38
2022-10-05T02:18:53.683Z,398.40
2022-10-05T02:19:30.073Z,398.45
2022-10-05T02:20:05.382Z,397.67
2022-10-05T02:20:39.593Z,393.52
2022-10-05T02:21:12.063Z,396.05
2022-10-05T02:21:47.535Z,390.38
2022-10-05T02:22:23.436Z,379.55
2022-10-05T02:22:58.494Z,384.77
2022-10-05T02:23:32.764Z,386.88
2022-10-05T02:24:08.952Z,384.65
2022-10-05T02:24:45.596Z,388.73
2022-10-05T02:25:21.612Z,413.65
2022-10-05T02:25:55.422Z,412.83
2022-10-05T02:26:27.952Z,393.73
2022-10-05T02:27:00.863Z,386.75
2022-10-05T02:27:36.992Z,397.77
2022-10-05T02:28:18.521Z,400.92
2022-10-05T02:28:55.824Z,400.95
2022-10-05T02:29:30.601Z,401.50
2022-10-05T02:30:05.792Z,402.48
2022-10-05T02:30:50.521Z,404.48
2022-10-05T02:31:25.460Z,403.80
2022-10-05T02:32:00.950Z,395.70
2022-10-05T02:32:39.606Z,389.13
2022-10-05T02:33:17.166Z,392.98
2022-10-05T02:33:49.662Z,395.50
2022-10-05T02:34:28.518Z,386.05
2022-10-05T02:35:15.958Z,395.02
2022-10-05T02:35:49.764Z,397.55
2022-10-05T02:36:29.994Z,392.80
2022-10-05T02:37:02.481Z,398.60
2022-10-05T02:37:35.000Z,398.27
2022-10-05T02:38:07.547Z,392.55
2022-10-05T02:39:06.186Z,380.13
2022-10-05T02:39:41.609Z,416.58
2022-10-05T02:40:13.912Z,406.85
2022-10-05T02:40:49.349Z,402.85
2022-10-05T02:41:27.404Z,408.27
2022-10-05T02:42:22.835Z,402.98
2022-10-05T02:43:18.248Z,423.33
2022-10-05T02:44:00.374Z,421.88
2022-10-05T02:44:33.451Z,412.63
2022-10-05T02:45:11.563Z,409.20
2022-10-05T02:45:52.897Z,407.23
2022-10-05T02:46:25.431Z,396.60
2022-10-05T02:46:58.124Z,395.40
2022-10-05T02:47:46.855Z,394.83
2022-10-05T02:48:39.369Z,403.33
2022-10-05T02:49:20.649Z,407.05
2022-10-05T02:50:16.265Z,400.52
2022-10-05T02:51:07.464Z,409.15
2022-10-05T02:51:39.942Z,409.80
2022-10-05T02:52:38.592Z,402.35
2022-10-05T02:53:10.999Z,404.27
2022-10-05T02:54:06.979Z,398.02
2022-10-05T02:54:44.979Z,398.95
2022-10-05T02:55:17.325Z,395.45
2022-10-05T02:56:04.055Z,391.75
2022-10-05T02:56:41.870Z,389.65
2022-10-05T02:57:24.425Z,396.70
2022-10-05T02:58:03.789Z,391.35
2022-10-05T02:58:41.901Z,394.98
2022-10-05T02:59:14.262Z,387.73
2022-10-05T02:59:56.047Z,385.90
2022-10-05T03:00:31.586Z,385.02
2022-10-05T03:01:09.257Z,389.55
2022-10-05T03:01:46.839Z,379.92
2022-10-05T03:02:24.882Z,377.98
2022-10-05T03:03:08.952Z,386.65
2022-10-05T03:03:47.611Z,402.80
2022-10-05T03:04:26.163Z,380.80
2022-10-05T03:05:02.103Z,389.15
2022-10-05T03:05:38.399Z,394.70
2022-10-05T03:06:17.310Z,378.95
2022-10-05T03:06:58.763Z,374.77
2022-10-05T03:07:32.084Z,397.40
2022-10-05T03:08:08.898Z,398.02
2022-10-05T03:08:48.318Z,388.90
2022-10-05T03:09:22.286Z,395.90
2022-10-05T03:10:01.421Z,397.50
2022-10-05T03:10:56.886Z,401.08
2022-10-05T03:11:41.472Z,400.48
2022-10-05T03:12:25.987Z,398.77
2022-10-05T03:13:05.898Z,398.40
2022-10-05T03:13:41.685Z,402.27
2022-10-05T03:14:35.475Z,383.75
2022-10-05T03:15:10.960Z,405.48
2022-10-05T03:15:54.002Z,403.55
2022-10-05T03:16:30.401Z,412.05
2022-10-05T03:17:14.133Z,383.35
2022-10-05T03:18:03.115Z,392.58
2022-10-05T03:18:41.233Z,420.55
2022-10-05T03:19:23.011Z,406.65
2022-10-05T03:20:07.202Z,400.30
2022-10-05T03:20:54.257Z,393.95
2022-10-05T03:21:29.527Z,397.50
2022-10-05T03:22:05.289Z,394.40
2022-10-05T03:22:40.748Z,398.00
2022-10-05T03:23:25.469Z,402.15
2022-10-05T03:24:13.157Z,404.48
2022-10-05T03:25:05.281Z,399.85
2022-10-05T03:26:00.179Z,398.85
2022-10-05T03:26:35.466Z,408.63
2022-10-05T03:27:23.464Z,399.80
2022-10-05T03:27:56.501Z,406.80
2022-10-05T03:28:29.325Z,401.05
2022-10-05T03:29:01.667Z,387.80
2022-10-05T03:29:52.923Z,391.70
2022-10-05T03:30:26.897Z,413.63
2022-10-05T03:30:59.708Z,403.02
2022-10-05T03:31:36.895Z,404.60
2022-10-05T03:32:09.785Z,396.40
2022-10-05T03:33:03.850Z,389.65
2022-10-05T03:33:37.432Z,411.80
2022-10-05T03:34:12.694Z,399.67
2022-10-05T03:34:45.347Z,403.58
2022-10-05T03:35:23.287Z,397.17
2022-10-05T03:35:58.569Z,401.48
2022-10-05T03:36:50.768Z,400.92
2022-10-05T03:37:28.309Z,411.52
2022-10-05T03:38:03.833Z,402.15
2022-10-05T03:38:36.539Z,394.50
2022-10-05T03:39:17.507Z,396.48
2022-10-05T03:39:54.102Z,396.30
2022-10-05T03:40:30.817Z,404.05
2022-10-05T03:41:22.002Z,399.13
2022-10-05T03:41:54.396Z,397.98
2022-10-05T03:42:45.324Z,391.52
2022-10-05T03:43:20.549Z,400.33
2022-10-05T03:43:55.533Z,405.15
2022-10-05T03:44:31.047Z,393.05
2022-10-05T03:45:13.215Z,377.10
2022-10-05T03:46:05.121Z,386.52
2022-10-05T03:46:37.702Z,403.10
2022-10-05T03:47:29.020Z,400.73
2022-10-05T03:48:09.928Z,410.48
2022-10-05T03:48:53.110Z,389.73
2022-10-05T03:49:48.944Z,394.25
2022-10-05T03:50:21.815Z,401.35
2022-10-05T03:51:23.073Z,403.98
2022-10-05T03:51:59.919Z,420.88
2022-10-05T03:52:36.769Z,409.55
2022-10-05T03:53:16.615Z,405.52
2022-10-05T03:54:21.429Z,408.45
2022-10-05T03:55:00.292Z,400.33
2022-10-05T03:55:42.226Z,403.60
2022-10-05T03:56:17.097Z,393.15
2022-10-05T03:56:52.993Z,403.23
2022-10-05T03:57:29.871Z,396.08
2022-10-05T03:58:21.615Z,401.95
2022-10-05T03:59:08.442Z,405.48
2022-10-05T04:00:04.650Z,407.02
2022-10-05T04:00:48.545Z,407.25
2022-10-05T04:01:23.999Z,398.25
2022-10-05T04:02:01.788Z,398.90
2022-10-05T04:02:37.664Z,397.33
2022-10-05T04:03:13.453Z,390.80
2022-10-05T04:03:47.365Z,398.33
2022-10-05T04:04:34.183Z,384.50
2022-10-05T04:05:09.373Z,410.60
2022-10-05T04:05:46.099Z,403.27
2022-10-05T04:06:33.652Z,383.75
2022-10-05T04:07:09.836Z,402.23
2022-10-05T04:07:54.084Z,396.63
2022-10-05T04:08:26.360Z,396.55
2022-10-05T04:09:04.090Z,403.48
2022-10-05T04:09:39.845Z,401.17
2022-10-05T04:10:17.645Z,389.20
2022-10-05T04:10:52.179Z,371.05
2022-10-05T04:11:42.890Z,380.95
2022-10-05T04:12:36.302Z,378.65
2022-10-05T04:13:18.777Z,383.95
2022-10-05T04:14:09.479Z,386.92
2022-10-05T04:14:45.161Z,390.35
2022-10-05T04:15:20.065Z,382.17
2022-10-05T04:16:11.483Z,382.60
2022-10-05T04:16:59.919Z,377.88
2022-10-05T04:17:36.055Z,393.08
2022-10-05T04:18:34.828Z,379.20
2022-10-05T04:19:20.652Z,397.08
2022-10-05T04:20:03.226Z,387.75
2022-10-05T04:20:36.345Z,388.55
2022-10-05T04:21:23.550Z,375.67
2022-10-05T04:22:06.581Z,386.15
2022-10-05T04:23:00.017Z,384.10
2022-10-05T04:23:38.476Z,393.90
2022-10-05T04:24:18.776Z,389.73
2022-10-05T04:25:03.175Z,403.45
2022-10-05T04:25:54.179Z,394.73
2022-10-05T04:26:36.372Z,401.60
2022-10-05T04:27:15.334Z,397.27
2022-10-05T04:27:51.124Z,392.38
2022-10-05T04:28:36.506Z,381.83
2022-10-05T04:29:20.989Z,387.73
2022-10-05T04:29:53.534Z,388.85
2022-10-05T04:30:25.984Z,383.95
2022-10-05T04:31:03.032Z,382.90
2022-10-05T04:31:46.495Z,378.90
2022-10-05T04:32:37.734Z,377.55
2022-10-05T04:33:13.832Z,393.23
2022-10-05T04:33:50.005Z,384.40
2022-10-05T04:34:25.336Z,383.08
2022-10-05T04:35:16.359Z,372.00
2022-10-05T04:36:07.921Z,385.23
2022-10-05T04:36:46.274Z,398.80
2022-10-05T04:37:42.165Z,389.65
2022-10-05T04:38:40.309Z,398.13
2022-10-05T04:39:16.421Z,408.52
2022-10-05T04:39:59.155Z,401.27
2022-10-05T04:40:40.140Z,404.88
2022-10-05T04:41:30.963Z,392.55
2022-10-05T04:42:13.392Z,404.00
2022-10-05T04:43:15.880Z,397.73
2022-10-05T04:43:56.852Z,400.77
2022-10-05T04:44:29.188Z,402.27
2022-10-05T04:45:01.634Z,391.35
2022-10-05T04:45:58.853Z,387.77
2022-10-05T04:46:43.159Z,395.27
2022-10-05T04:47:15.618Z,400.90
2022-10-05T04:48:17.503Z,382.75
2022-10-05T04:48:50.029Z,396.42
2022-10-05T04:49:28.210Z,387.90
2022-10-05T04:50:13.140Z,388.13
2022-10-05T04:50:52.466Z,389.75
2022-10-05T04:51:24.995Z,388.92
2022-10-05T04:52:16.266Z,388.20
2022-10-05T04:52:48.548Z,369.10
2022-10-05T04:53:40.996Z,383.15
2022-10-05T04:54:22.405Z,385.08
2022-10-05T04:55:13.516Z,392.02
2022-10-05T04:55:45.946Z,390.92
2022-10-05T04:56:18.417Z,383.50
2022-10-05T04:57:03.408Z,386.10
2022-10-05T04:57:55.600Z,371.77
2022-10-05T04:58:28.011Z,387.00
2022-10-05T04:59:12.732Z,370.27
2022-10-05T04:59:50.834Z,377.50
2022-10-05T05:00:26.829Z,379.30
2022-10-05T05:01:19.347Z,389.85
2022-10-05T05:02:27.194Z,393.15
2022-10-05T05:02:59.485Z,417.00
2022-10-05T05:03:46.992Z,400.90
2022-10-05T05:04:34.284Z,398.17
2022-10-05T05:06:04.985Z,401.65
2022-10-05T05:06:44.919Z,407.42
2022-10-05T05:07:28.927Z,406.42
2022-10-05T05:08:10.387Z,402.58
2022-10-05T05:08:57.168Z,401.98
2022-10-05T05:09:39.119Z,410.32
2022-10-05T05:10:29.968Z,385.20
2022-10-05T05:11:24.428Z,401.23
2022-10-05T05:12:04.478Z,414.27
2022-10-05T05:12:53.064Z,405.30
2022-10-05T05:13:51.563Z,399.17
2022-10-05T05:14:43.143Z,400.75
2022-10-05T05:15:18.477Z,401.95
2022-10-05T05:15:51.144Z,385.27
2022-10-05T05:16:23.637Z,394.27
2022-10-05T05:17:13.289Z,401.00
2022-10-05T05:17:48.701Z,392.00
2022-10-05T05:18:36.457Z,389.33
2022-10-05T05:19:17.516Z,399.45
2022-10-05T05:19:49.978Z,402.42
2022-10-05T05:20:25.159Z,398.50
2022-10-05T05:20:57.759Z,394.38
2022-10-05T05:21:38.808Z,398.63
2022-10-05T05:22:26.195Z,394.42
2022-10-05T05:23:17.176Z,398.27
2022-10-05T05:23:52.479Z,402.17
2022-10-05T05:24:34.068Z,398.63
2022-10-05T05:25:26.882Z,387.05
2022-10-05T05:26:07.973Z,398.42
2022-10-05T05:26:43.167Z,397.52
2022-10-05T05:27:18.138Z,394.85
2022-10-05T05:28:20.018Z,386.85
2022-10-05T05:29:05.922Z,406.88
2022-10-05T05:29:44.710Z,409.70
2022-10-05T05:30:17.026Z,410.95
2022-10-05T05:30:58.525Z,393.77
2022-10-05T05:31:49.240Z,405.83
2022-10-05T05:32:40.315Z,402.90
2022-10-05T05:33:31.628Z,400.40
2022-10-05T05:34:10.610Z,398.23
2022-10-05T05:35:01.665Z,398.40
2022-10-05T05:35:53.614Z,394.45
2022-10-05T05:36:49.394Z,398.27
2022-10-05T05:37:21.926Z,392.08
2022-10-05T05:38:13.200Z,383.80
2022-10-05T05:38:54.360Z,386.58
2022-10-05T05:39:34.040Z,385.02
2022-10-05T05:40:15.677Z,382.23
2022-10-05T05:40:55.276Z,395.83
2022-10-05T05:41:41.069Z,400.77
2022-10-05T05:42:18.539Z,386.45
2022-10-05T05:43:03.365Z,393.50
2022-10-05T05:43:37.299Z,393.40
2022-10-05T05:44:09.647Z,369.58
2022-10-05T05:44:46.688Z,385.30
2022-10-05T05:45:38.879Z,387.25
2022-10-05T05:46:38.763Z,399.30
2022-10-05T05:47:38.091Z,395.42
2022-10-05T05:48:25.453Z,396.70
2022-10-05T05:48:58.322Z,397.63
2022-10-05T05:49:49.367Z,400.55
2022-10-05T05:50:39.972Z,409.25
2022-10-05T05:51:15.431Z,399.75
2022-10-05T05:51:52.929Z,388.77
2022-10-05T05:52:34.683Z,400.00
2022-10-05T05:53:27.200Z,392.58
2022-10-05T05:54:05.581Z,411.08
2022-10-05T05:54:40.724Z,389.62
2022-10-05T05:55:26.454Z,390.20
2022-10-05T05:56:07.370Z,395.73
2022-10-05T05:56:43.053Z,397.08
2022-10-05T05:57:18.484Z,385.52
2022-10-05T05:57:56.768Z,389.48
2022-10-05T05:58:35.781Z,369.06
2022-10-05T05:59:29.228Z,394.46
2022-10-05T06:00:05.818Z,398.13
2022-10-05T06:00:59.933Z,388.32
2022-10-05T06:01:44.500Z,403.00
2022-10-05T06:02:21.877Z,383.68
2022-10-05T06:03:13.331Z,403.64
2022-10-05T06:03:49.163Z,400.92
2022-10-05T06:04:36.505Z,398.60
2022-10-05T06:05:27.361Z,400.48
2022-10-05T06:06:10.064Z,404.13
2022-10-05T06:06:49.352Z,396.80
2022-10-05T06:07:30.605Z,395.35
2022-10-05T06:08:24.174Z,404.83
2022-10-05T06:09:11.498Z,395.06
2022-10-05T06:09:58.418Z,408.33
2022-10-05T06:10:41.649Z,405.42
2022-10-05T06:11:51.381Z,401.38
2022-10-05T06:12:32.975Z,399.20
2022-10-05T06:13:08.116Z,405.48
2022-10-05T06:13:41.489Z,394.13
2022-10-05T06:14:19.694Z,405.80
2022-10-05T06:14:55.907Z,407.15
2022-10-05T06:15:31.151Z,400.10
2022-10-05T06:16:23.985Z,402.96
2022-10-05T06:17:12.449Z,403.50
2022-10-05T06:17:51.411Z,395.35
2022-10-05T06:18:23.972Z,402.42
2022-10-05T06:19:04.130Z,394.82
2022-10-05T06:19:37.141Z,404.00
2022-10-05T06:20:13.902Z,402.46
2022-10-05T06:20:53.431Z,408.86
2022-10-05T06:21:44.178Z,403.95
2022-10-05T06:22:17.392Z,392.10
2022-10-05T06:22:51.663Z,395.74
2022-10-05T06:23:47.401Z,385.00
2022-10-05T06:24:25.827Z,385.14
2022-10-05T06:25:05.531Z,386.08
2022-10-05T06:26:13.128Z,404.78
2022-10-05T06:26:59.368Z,394.80
2022-10-05T06:27:37.261Z,391.16
2022-10-05T06:28:11.980Z,400.64
2022-10-05T06:29:00.881Z,413.16
2022-10-05T06:29:56.184Z,420.22
2022-10-05T06:30:51.586Z,421.52
2022-10-05T06:31:26.773Z,420.94
2022-10-05T06:32:18.686Z,417.77
2022-10-05T06:32:51.018Z,416.10
2022-10-05T06:33:35.057Z,410.00
2022-10-05T06:34:28.243Z,403.10
2022-10-05T06:35:15.904Z,415.20
2022-10-05T06:36:05.869Z,410.64
2022-10-05T06:36:45.777Z,403.25
2022-10-05T06:38:05.489Z,422.88
2022-10-05T06:38:50.006Z,407.68
2022-10-05T06:39:34.543Z,413.14
2022-10-05T06:40:25.737Z,416.92
2022-10-05T06:41:17.282Z,417.38
2022-10-05T06:41:57.758Z,419.06
2022-10-05T06:42:52.938Z,417.05
2022-10-05T06:43:57.628Z,407.56
2022-10-05T06:45:18.698Z,416.26
2022-10-05T06:46:29.201Z,409.95
2022-10-05T06:47:36.747Z,414.34
2022-10-05T06:48:35.627Z,416.98
2022-10-05T06:49:45.440Z,429.24
2022-10-05T06:50:48.745Z,427.40
2022-10-05T06:51:46.968Z,432.26
2022-10-05T06:52:31.465Z,431.30
2022-10-05T06:53:12.510Z,423.98
2022-10-05T06:54:04.765Z,417.22
2022-10-05T06:54:46.086Z,413.28
2022-10-05T06:55:23.002Z,406.58
2022-10-05T06:56:04.953Z,400.34
2022-10-05T06:56:55.280Z,401.74
2022-10-05T06:57:44.535Z,379.48
2022-10-05T06:58:17.507Z,398.40
2022-10-05T06:59:10.342Z,400.34
2022-10-05T07:00:08.794Z,401.52
2022-10-05T07:00:57.468Z,411.10
2022-10-05T07:01:35.233Z,405.16
2022-10-05T07:02:19.556Z,393.22
2022-10-05T07:02:59.010Z,393.34
2022-10-05T07:03:54.772Z,395.50
2022-10-05T07:04:39.342Z,394.58
2022-10-05T07:05:31.687Z,401.62
2022-10-05T07:06:13.346Z,398.70
2022-10-05T07:06:45.724Z,398.92
2022-10-05T07:07:18.406Z,398.44
2022-10-05T07:07:53.982Z,408.82
2022-10-05T07:08:34.050Z,403.18
2022-10-05T07:09:06.402Z,408.98
2022-10-05T07:09:39.584Z,394.46
2022-10-05T07:10:21.347Z,398.78
2022-10-05T07:11:03.380Z,401.16
2022-10-05T07:11:42.519Z,401.90
2022-10-05T07:12:37.636Z,407.46
2022-10-05T07:13:32.760Z,402.02
2022-10-05T07:14:20.454Z,414.42
2022-10-05T07:15:03.787Z,406.36
2022-10-05T07:15:49.676Z,412.80
2022-10-05T07:16:26.679Z,388.92
2022-10-05T07:16:59.059Z,404.60
2022-10-05T07:17:45.984Z,403.10
2022-10-05T07:18:37.390Z,406.96
2022-10-05T07:19:28.810Z,386.06
2022-10-05T07:20:18.985Z,411.08
2022-10-05T07:21:10.509Z,385.00
2022-10-05T07:21:53.072Z,410.10
2022-10-05T07:22:28.286Z,409.30
2022-10-05T07:23:21.490Z,405.32
2022-10-05T07:23:54.864Z,411.82
2022-10-05T07:24:34.216Z,409.48
2022-10-05T07:25:21.656Z,396.50
2022-10-05T07:26:01.004Z,404.06
2022-10-05T07:26:37.607Z,397.48
2022-10-05T07:27:13.405Z,402.30
2022-10-05T07:27:51.824Z,397.52
2022-10-05T07:28:25.049Z,393.90
2022-10-05T07:29:18.011Z,392.48
2022-10-05T07:29:50.303Z,403.38
2022-10-05T07:30:23.653Z,414.38
2022-10-05T07:31:02.284Z,403.50
2022-10-05T07:31:46.197Z,395.85
2022-10-05T07:32:22.822Z,408.63
2022-10-05T07:32:55.715Z,402.80
2022-10-05T07:33:33.964Z,385.22
2022-10-05T07:34:24.690Z,395.74
2022-10-05T07:35:00.054Z,379.14
2022-10-05T07:35:59.332Z,399.32
2022-10-05T07:36:54.943Z,407.30
2022-10-05T07:37:49.759Z,412.36
2022-10-05T07:38:33.178Z,413.66
2022-10-05T07:39:13.739Z,402.48
2022-10-05T07:40:01.170Z,414.83
2022-10-05T07:40:45.551Z,419.98
2022-10-05T07:41:28.362Z,405.34
2022-10-05T07:42:09.509Z,435.58
2022-10-05T07:43:03.484Z,431.54
2022-10-05T07:44:13.943Z,410.72
2022-10-05T07:44:53.239Z,413.92
2022-10-05T07:45:29.864Z,432.58
2022-10-05T07:46:22.757Z,433.98
2022-10-05T07:47:15.698Z,430.04
2022-10-05T07:47:57.686Z,430.30
2022-10-05T07:48:43.818Z,442.38
2022-10-05T07:49:23.529Z,439.13
2022-10-05T07:50:19.117Z,438.13
2022-10-05T07:51:03.744Z,457.45
2022-10-05T07:51:41.516Z,457.13
2022-10-05T07:52:20.457Z,458.33
2022-10-05T07:52:55.643Z,459.00
2022-10-05T07:53:38.967Z,437.83
2022-10-05T07:54:31.134Z,444.25
2022-10-05T07:55:20.552Z,457.05
2022-10-05T07:55:54.845Z,460.08
2022-10-05T07:56:36.950Z,465.50
2022-10-05T07:57:12.008Z,463.48
2022-10-05T07:57:44.340Z,451.85
2022-10-05T07:58:27.753Z,450.48
2022-10-05T07:59:04.662Z,424.30
2022-10-05T07:59:42.110Z,427.00
2022-10-05T08:00:24.853Z,448.13
2022-10-05T08:01:19.389Z,460.20
2022-10-05T08:01:59.224Z,456.70
2022-10-05T08:02:49.916Z,423.27
2022-10-05T08:03:54.539Z,447.05
2022-10-05T08:04:26.812Z,452.25
2022-10-05T08:05:17.836Z,438.95
2022-10-05T08:05:50.289Z,476.55
2022-10-05T08:06:36.184Z,467.25
2022-10-05T08:07:11.541Z,460.55
2022-10-05T08:07:44.040Z,456.27
2022-10-05T08:08:21.844Z,454.65
2022-10-05T08:09:00.859Z,447.27
2022-10-05T08:09:33.214Z,457.42
2022-10-05T08:10:17.951Z,458.86
2022-10-05T08:10:53.238Z,465.73
2022-10-05T08:11:30.563Z,465.88
2022-10-05T08:12:02.817Z,444.42
2022-10-05T08:12:40.318Z,416.52
2022-10-05T08:13:18.200Z,426.40
2022-10-05T08:14:02.434Z,454.13
2022-10-05T08:14:34.954Z,468.04
2022-10-05T08:15:17.925Z,455.58
2022-10-05T08:15:56.291Z,446.85
2022-10-05T08:16:33.047Z,446.02
2022-10-05T08:17:11.113Z,444.25
2022-10-05T08:17:57.218Z,435.45
2022-10-05T08:18:53.110Z,452.42
2022-10-05T08:19:51.276Z,460.65
2022-10-05T08:20:32.654Z,445.70
2022-10-05T08:21:12.152Z,453.30
2022-10-05T08:21:48.185Z,470.77
2022-10-05T08:22:32.006Z,464.05
2022-10-05T08:23:04.293Z,461.23
2022-10-05T08:23:38.913Z,450.38
2022-10-05T08:24:23.377Z,434.95
2022-10-05T08:24:59.517Z,428.45
2022-10-05T08:25:45.640Z,400.08
2022-10-05T08:26:24.528Z,440.58
2022-10-05T08:27:02.282Z,437.50
2022-10-05T08:27:50.138Z,439.92
2022-10-05T08:28:35.991Z,454.48
2022-10-05T08:29:13.810Z,447.13
2022-10-05T08:29:55.405Z,446.08
2022-10-05T08:30:29.904Z,408.20
2022-10-05T08:31:08.147Z,413.98
2022-10-05T08:31:42.180Z,446.08
2022-10-05T08:32:19.043Z,442.55
2022-10-05T08:33:08.064Z,430.74
2022-10-05T08:33:46.307Z,444.00
2022-10-05T08:34:40.061Z,430.52
2022-10-05T08:35:12.520Z,452.75
2022-10-05T08:35:46.367Z,447.48
2022-10-05T08:36:22.055Z,450.18
2022-10-05T08:37:00.563Z,444.50
2022-10-05T08:37:39.483Z,448.15
2022-10-05T08:38:13.811Z,432.30
2022-10-05T08:38:46.078Z,426.98
2022-10-05T08:39:19.794Z,421.70
2022-10-05T08:40:10.910Z,452.98
2022-10-05T08:40:52.263Z,445.42
2022-10-05T08:41:24.639Z,455.33